地図

経路データ

SID SEASON NUMBER BASIN SUBBASIN NAME ISO_TIME NATURE LAT LON WMO_WIND WMO_PRES WMO_AGENCY TRACK_TYPE DIST2LAND LANDFALL IFLAG USA_AGENCY USA_ATCF_ID USA_LAT USA_LON USA_RECORD USA_STATUS USA_WIND USA_PRES USA_SSHS USA_R34_NE USA_R34_SE USA_R34_SW USA_R34_NW USA_R50_NE USA_R50_SE USA_R50_SW USA_R50_NW USA_R64_NE USA_R64_SE USA_R64_SW USA_R64_NW USA_POCI USA_ROCI USA_RMW USA_EYE TOKYO_LAT TOKYO_LON TOKYO_GRADE TOKYO_WIND TOKYO_PRES TOKYO_R50_DIR TOKYO_R50_LONG TOKYO_R50_SHORT TOKYO_R30_DIR TOKYO_R30_LONG TOKYO_R30_SHORT TOKYO_LAND CMA_LAT CMA_LON CMA_CAT CMA_WIND CMA_PRES HKO_LAT HKO_LON HKO_CAT HKO_WIND HKO_PRES NEWDELHI_LAT NEWDELHI_LON NEWDELHI_GRADE NEWDELHI_WIND NEWDELHI_PRES NEWDELHI_CI NEWDELHI_DP NEWDELHI_POCI REUNION_LAT REUNION_LON REUNION_TYPE REUNION_WIND REUNION_PRES REUNION_TNUM REUNION_CI REUNION_RMW REUNION_R34_NE REUNION_R34_SE REUNION_R34_SW REUNION_R34_NW REUNION_R50_NE REUNION_R50_SE REUNION_R50_SW REUNION_R50_NW REUNION_R64_NE REUNION_R64_SE REUNION_R64_SW REUNION_R64_NW BOM_LAT BOM_LON BOM_TYPE BOM_WIND BOM_PRES BOM_TNUM BOM_CI BOM_RMW BOM_R34_NE BOM_R34_SE BOM_R34_SW BOM_R34_NW BOM_R50_NE BOM_R50_SE BOM_R50_SW BOM_R50_NW BOM_R64_NE BOM_R64_SE BOM_R64_SW BOM_R64_NW BOM_ROCI BOM_POCI BOM_EYE BOM_POS_METHOD BOM_PRES_METHOD NADI_LAT NADI_LON NADI_CAT NADI_WIND NADI_PRES WELLINGTON_LAT WELLINGTON_LON WELLINGTON_WIND WELLINGTON_PRES DS824_LAT DS824_LON DS824_STAGE DS824_WIND DS824_PRES TD9636_LAT TD9636_LON TD9636_STAGE TD9636_WIND TD9636_PRES TD9635_LAT TD9635_LON TD9635_WIND TD9635_PRES TD9635_ROCI NEUMANN_LAT NEUMANN_LON NEUMANN_CLASS NEUMANN_WIND NEUMANN_PRES MLC_LAT MLC_LON MLC_CLASS MLC_WIND MLC_PRES USA_GUST BOM_GUST BOM_GUST_PER REUNION_GUST REUNION_GUST_PER USA_SEAHGT USA_SEARAD_NE USA_SEARAD_SE USA_SEARAD_SW USA_SEARAD_NW STORM_SPEED STORM_DIR
1954259N20118 1954 62 WP MM NOT_NAMED 1954-09-16 00:00:00 TS 20.1000 117.800 main 340 336 __O___________ -1 20.1000 117.800 0 19 1000 8 230
1954259N20118 1954 62 WP MM NOT_NAMED 1954-09-16 03:00:00 TS 19.8376 117.462 main 361 356 __P___________ -1 19.8376 117.462 0 19 1000 8 233
1954259N20118 1954 62 WP MM NOT_NAMED 1954-09-16 06:00:00 TS 19.6000 117.100 main 371 368 __O___________ -1 19.6000 117.100 0 19 1000 8 239
1954259N20118 1954 62 WP MM NOT_NAMED 1954-09-16 09:00:00 TS 19.4000 116.700 main 380 378 __P___________ -1 19.4000 116.700 0 19 1000 9 242
1954259N20118 1954 62 WP MM NOT_NAMED 1954-09-16 12:00:00 TS 19.2000 116.300 main 394 392 __O___________ -1 19.2000 116.300 0 19 1000 8 236
1954259N20118 1954 62 WP MM NOT_NAMED 1954-09-16 15:00:00 TS 18.9348 115.957 main 418 415 __P___________ -1 18.9348 115.957 0 19 1000 8 233
1954259N20118 1954 62 WP MM NOT_NAMED 1954-09-16 18:00:00 TS 18.7000 115.600 main 424 421 __O___________ -1 18.7000 115.600 0 19 1000 8 244
1954259N20118 1954 62 WP MM NOT_NAMED 1954-09-16 21:00:00 TS 18.5700 115.165 main 424 407 __P___________ -1 18.5700 115.165 0 19 1000 9 257
1954259N20118 1954 62 WP MM NOT_NAMED 1954-09-17 00:00:00 TS 18.5000 114.700 main 407 368 __O___________ -1 18.5000 114.700 0 19 1000 9 266
1954259N20118 1954 62 WP MM NOT_NAMED 1954-09-17 03:00:00 TS 18.5025 114.235 main 358 323 __P___________ -1 18.5025 114.235 0 19 1000 9 263
1954259N20118 1954 62 WP MM NOT_NAMED 1954-09-17 06:00:00 TS 18.4000 113.800 main 323 312 __O___________ -1 18.4000 113.800 0 19 1000 9 234
1954259N20118 1954 62 WP MM NOT_NAMED 1954-09-17 09:00:00 TS 17.9647 113.465 main 318 310 __P___________ -1 17.9647 113.465 0 24 998 11 216
1954259N20118 1954 62 WP MM NOT_NAMED 1954-09-17 12:00:00 TS 17.5000 113.100 main 310 278 __O___________ -1 17.5000 113.100 1 29 996 11 230
1954259N20118 1954 62 WP MM NOT_NAMED 1954-09-17 15:00:00 TS 17.2898 112.610 main 278 238 __P___________ -1 17.2898 112.610 1 29 996 11 254
1954259N20118 1954 62 WP MM NOT_NAMED 1954-09-17 18:00:00 TS 17.2000 112.000 main 238 198 __O___________ -1 17.2000 112.000 1 29 996 13 263
1954259N20118 1954 62 WP MM NOT_NAMED 1954-09-17 21:00:00 TS 17.1427 111.265 main 200 149 __P___________ -1 17.1427 111.265 1 29 996 14 266
1954259N20118 1954 62 WP MM NOT_NAMED 1954-09-18 00:00:00 TS 17.1000 110.500 main 149 130 __O___________ -1 17.1000 110.500 1 29 996 14 264
1954259N20118 1954 62 WP MM NOT_NAMED 1954-09-18 03:00:00 TS 16.9998 109.812 main 134 134 __P___________ -1 16.9998 109.812 1 33 995 13 261
1954259N20118 1954 62 WP MM NOT_NAMED 1954-09-18 06:00:00 TS 16.9000 109.200 main 139 92 __O___________ -1 16.9000 109.200 2 38 994 11 262
1954259N20118 1954 62 WP MM NOT_NAMED 1954-09-18 09:00:00 TS 16.8377 108.675 main 92 61 __P___________ -1 16.8377 108.675 2 38 994 10 264
1954259N20118 1954 62 WP MM NOT_NAMED 1954-09-18 12:00:00 TS 16.8000 108.200 main 61 __O___________ -1 16.8000 108.200 2 38 994 9 265

デジタル台風データ・検索

IBTrACS Databaseについて

本データベースは、米国NOAAが公開する1842年以降の世界の熱帯低気圧のベストトラックデータアーカイブInternational Best Track Archive for Climate Stewardship (IBTrACS)を、ウェブで閲覧しやすい形式に変換したものです。

最終更新日:2021-11-26